Time;durP1;ratioP1;P1;durP2;ratioP2;P2;SDS_P1;SDS_P2;PMS_P1;PMS_P2;Temp;Humidity;BMP_temperature;BMP_pressure;BME280_temperature;BME280_humidity;BME280_pressure;Samples;Min_cycle;Max_cycle;Signal;HPM_P1;HPM_P2
2023/06/04 00:01:42;;;;;;;5.63;2.55;;;;;;;25.04;58.08;101059.13;5094816;28;20048;-55
2023/06/04 00:04:09;;;;;;;4.05;2.28;;;;;;;25.03;58.23;101051.13;5094584;28;20522;-55
2023/06/04 00:06:36;;;;;;;9.25;2.85;;;;;;;25.03;58.00;101051.13;5094672;28;20387;-55
2023/06/04 00:09:03;;;;;;;5.85;3.03;;;;;;;25.05;58.16;101054.56;5094349;28;20066;-56
2023/06/04 00:11:33;;;;;;;4.60;2.55;;;;;;;25.04;57.95;101042.88;5094479;28;20384;-58
2023/06/04 00:14:01;;;;;;;6.10;3.15;;;;;;;25.04;58.24;101039.31;5094331;28;20044;-58
2023/06/04 00:16:28;;;;;;;4.22;3.00;;;;;;;25.05;57.94;101044.56;5094335;28;20044;-58
2023/06/04 00:18:55;;;;;;;4.47;2.55;;;;;;;25.05;58.16;101036.44;5094336;28;20048;-58
2023/06/04 00:21:23;;;;;;;4.80;2.92;;;;;;;25.05;58.14;101041.84;5094469;28;20051;-56
2023/06/04 00:23:50;;;;;;;5.25;2.85;;;;;;;25.05;58.18;101039.13;5094704;28;20055;-56
2023/06/04 00:26:18;;;;;;;4.85;2.55;;;;;;;25.07;58.17;101023.56;5094436;28;20047;-56
2023/06/04 00:28:47;;;;;;;7.43;3.60;;;;;;;25.06;58.29;101023.72;5094235;28;20416;-55
2023/06/04 00:31:15;;;;;;;4.78;3.00;;;;;;;25.06;58.03;101024.56;5094424;28;20039;-58
2023/06/04 00:33:43;;;;;;;5.35;2.30;;;;;;;25.07;58.20;101028.97;5092816;28;20392;-58
2023/06/04 00:36:10;;;;;;;6.65;2.60;;;;;;;25.07;58.10;101020.84;5092909;28;20134;-58
2023/06/04 00:38:37;;;;;;;5.20;3.05;;;;;;;25.07;57.95;101026.25;5093878;28;20044;-58
2023/06/04 00:41:05;;;;;;;4.45;2.90;;;;;;;25.07;58.27;101028.97;5094011;28;20059;-58
2023/06/04 00:43:33;;;;;;;3.95;2.80;;;;;;;25.07;58.24;101031.69;5094113;28;20036;-58
2023/06/04 00:46:02;;;;;;;3.45;2.25;;;;;;;25.08;58.00;101032.56;5094173;28;20043;-58
2023/06/04 00:48:30;;;;;;;3.67;2.47;;;;;;;25.07;58.32;101023.56;5094048;28;20048;-58
2023/06/04 00:50:58;;;;;;;4.68;3.03;;;;;;;25.08;58.19;101027.13;5094215;28;20044;-58
2023/06/04 00:53:25;;;;;;;3.38;2.53;;;;;;;25.08;58.37;101022.56;5092957;28;20044;-58
2023/06/04 00:55:53;;;;;;;5.40;2.80;;;;;;;25.08;58.02;101027.97;5093922;28;20044;-58
2023/06/04 00:58:20;;;;;;;5.80;3.20;;;;;;;25.08;58.19;101027.13;5093930;28;20052;-58
2023/06/04 01:00:48;;;;;;;3.97;2.58;;;;;;;25.09;58.21;101024.28;5092615;28;20048;-55
2023/06/04 01:03:19;;;;;;;4.40;2.60;;;;;;;25.09;58.17;101024.28;5093565;28;20036;-55
2023/06/04 01:06:04;;;;;;;4.78;2.60;;;;;;;25.09;58.36;101024.28;5093846;28;20044;-55
2023/06/04 01:08:32;;;;;;;5.03;2.70;;;;;;;25.08;58.25;101030.69;5092912;28;20047;-55
2023/06/04 01:11:00;;;;;;;3.92;2.97;;;;;;;25.10;58.13;101025.97;5093933;28;20071;-55
2023/06/04 01:13:27;;;;;;;4.38;2.83;;;;;;;25.10;58.27;101019.72;5093722;28;20047;-55
2023/06/04 01:15:54;;;;;;;3.53;2.72;;;;;;;25.10;58.30;101027.84;5093549;28;20060;-55
2023/06/04 01:18:28;;;;;;;3.85;2.30;;;;;;;25.09;58.48;101024.28;5092682;28;20056;-55
2023/06/04 01:21:08;;;;;;;3.90;2.72;;;;;;;25.10;58.25;101023.25;5093671;28;20475;-55
2023/06/04 01:24:00;;;;;;;7.00;2.63;;;;;;;25.09;58.21;101026.16;5092694;28;20127;-55
2023/06/04 01:26:30;;;;;;;4.53;2.63;;;;;;;25.09;58.35;101018.88;5092702;28;20062;-55
2023/06/04 01:28:58;;;;;;;4.65;2.60;;;;;;;25.09;58.34;101016.16;5093872;28;20044;-55
2023/06/04 01:31:28;;;;;;;4.00;2.30;;;;;;;25.09;58.42;101024.28;5093567;28;20040;-55
2023/06/04 01:33:57;;;;;;;4.97;2.90;;;;;;;25.10;58.38;101028.69;5093562;28;20051;-56
2023/06/04 01:36:25;;;;;;;5.55;3.03;;;;;;;25.10;58.29;101025.97;5093391;28;20048;-55
2023/06/04 01:38:54;;;;;;;5.93;2.90;;;;;;;25.11;58.41;101026.81;5093604;28;20048;-55
2023/06/04 01:41:21;;;;;;;4.70;2.40;;;;;;;25.10;58.37;101031.38;5093542;28;20044;-58
2023/06/04 01:43:49;;;;;;;5.10;2.75;;;;;;;25.10;58.37;101025.97;5092082;28;20048;-58
2023/06/04 01:46:16;;;;;;;6.38;2.90;;;;;;;25.11;58.53;101027.66;5093308;28;20048;-58
2023/06/04 01:48:44;;;;;;;5.30;2.97;;;;;;;25.10;58.38;101033.25;5093554;28;20048;-58
2023/06/04 01:51:11;;;;;;;4.45;2.63;;;;;;;25.10;58.45;101031.38;5093551;28;20372;-58
2023/06/04 01:53:38;;;;;;;4.70;2.65;;;;;;;25.10;58.42;101036.81;5092549;28;20059;-58
2023/06/04 01:56:07;;;;;;;3.28;2.50;;;;;;;25.12;58.43;101033.97;5092188;28;20064;-58
2023/06/04 01:58:35;;;;;;;3.20;2.70;;;;;;;25.12;58.41;101028.53;5093433;28;20048;-58
2023/06/04 02:01:03;;;;;;;5.85;3.03;;;;;;;25.12;58.13;101029.38;5093337;28;20056;-58
2023/06/04 02:03:36;;;;;;;3.83;3.00;;;;;;;25.12;58.46;101029.38;5093049;28;20048;-58
2023/06/04 02:06:07;;;;;;;4.38;3.03;;;;;;;25.11;58.56;101019.53;5092226;28;20078;-59
2023/06/04 02:08:35;;;;;;;4.38;2.90;;;;;;;25.12;58.39;101023.97;5093101;28;20070;-58
2023/06/04 02:11:03;;;;;;;4.63;2.58;;;;;;;25.12;58.66;101023.13;5093072;28;20052;-56
2023/06/04 02:13:30;;;;;;;5.88;3.58;;;;;;;25.11;58.52;101011.41;5092000;28;20044;-55
2023/06/04 02:15:57;;;;;;;4.82;2.75;;;;;;;25.11;58.50;101015.97;5095993;28;20468;-56
2023/06/04 02:18:25;;;;;;;3.67;2.70;;;;;;;25.11;58.49;101011.41;5096893;28;20052;-56
2023/06/04 02:20:52;;;;;;;3.80;3.13;;;;;;;25.10;58.52;101023.25;5096994;28;20118;-58
2023/06/04 02:23:20;;;;;;;5.18;2.58;;;;;;;25.10;58.31;101015.13;5096351;28;20059;-58
2023/06/04 02:25:49;;;;;;;6.35;3.30;;;;;;;25.10;58.35;101017.84;5096423;28;20039;-59
2023/06/04 02:28:17;;;;;;;7.53;3.13;;;;;;;25.10;58.34;101017.84;5095308;28;20040;-58
2023/06/04 02:30:45;;;;;;;4.10;2.90;;;;;;;25.10;58.16;101028.69;5096441;28;20051;-58
2023/06/04 02:33:13;;;;;;;4.47;2.60;;;;;;;25.11;58.37;101029.53;5096618;28;20044;-58
2023/06/04 02:35:41;;;;;;;4.35;2.60;;;;;;;25.10;58.12;101019.72;5096044;28;20051;-58
2023/06/04 02:38:09;;;;;;;5.28;2.58;;;;;;;25.10;58.07;101017.00;5096278;28;20078;-58
2023/06/04 02:40:36;;;;;;;4.35;2.20;;;;;;;25.10;58.34;101008.88;5096406;28;20059;-58
2023/06/04 02:43:03;;;;;;;4.47;2.95;;;;;;;25.10;58.31;101012.44;5095658;28;20048;-58
2023/06/04 02:45:31;;;;;;;4.10;2.60;;;;;;;25.09;58.35;101008.03;5095454;28;20056;-58
2023/06/04 02:47:58;;;;;;;6.10;2.90;;;;;;;25.09;58.26;100999.06;5095126;28;20059;-58
2023/06/04 02:50:25;;;;;;;5.07;2.85;;;;;;;25.09;58.36;100997.19;5078740;28;20055;-58
2023/06/04 02:52:53;;;;;;;4.55;3.22;;;;;;;25.08;58.23;100995.47;5096355;28;20411;-58
2023/06/04 02:55:20;;;;;;;3.75;3.03;;;;;;;25.09;58.14;101008.03;5096143;28;20044;-58
2023/06/04 02:57:51;;;;;;;6.05;2.78;;;;;;;25.09;58.38;101009.91;5094553;28;20048;-58
2023/06/04 03:00:19;;;;;;;4.45;2.83;;;;;;;25.08;58.02;101014.44;5094494;28;20052;-57
2023/06/04 03:02:48;;;;;;;5.78;2.67;;;;;;;25.08;58.30;101014.44;5095393;28;20048;-59
2023/06/04 03:05:17;;;;;;;3.47;2.40;;;;;;;25.09;58.00;101021.56;5095786;28;20047;-58
2023/06/04 03:07:46;;;;;;;4.05;2.50;;;;;;;25.09;58.01;101015.31;5095804;28;20051;-58
2023/06/04 03:10:15;;;;;;;4.53;2.50;;;;;;;25.10;58.00;101020.56;5095719;28;20032;-58
2023/06/04 03:12:43;;;;;;;3.72;2.40;;;;;;;25.09;58.20;101024.28;5095632;28;20048;-58
2023/06/04 03:15:11;;;;;;;4.65;3.17;;;;;;;25.10;58.15;101028.69;5095744;28;20055;-58
2023/06/04 03:17:41;;;;;;;4.30;2.85;;;;;;;25.11;58.10;101033.09;5095171;28;20056;-58
2023/06/04 03:20:09;;;;;;;3.80;2.85;;;;;;;25.10;58.23;101034.09;5095936;28;20051;-57
2023/06/04 03:22:37;;;;;;;5.65;2.95;;;;;;;25.11;58.46;101035.78;5094719;28;20040;-58
2023/06/04 03:25:05;;;;;;;3.53;2.58;;;;;;;25.11;58.52;101032.25;5095605;28;20475;-59
2023/06/04 03:27:34;;;;;;;4.10;2.85;;;;;;;25.10;58.74;101033.25;5094173;28;20055;-58
2023/06/04 03:30:03;;;;;;;3.78;2.50;;;;;;;25.10;58.38;101031.38;5094964;28;20051;-58
2023/06/04 03:32:40;;;;;;;5.22;2.72;;;;;;;25.10;58.42;101036.81;5095736;28;20055;-56
2023/06/04 03:35:08;;;;;;;5.13;2.85;;;;;;;25.10;58.28;101019.72;5094664;28;20048;-56
2023/06/04 03:37:35;;;;;;;7.00;3.03;;;;;;;25.10;58.43;101025.13;5095417;28;20502;-56
2023/06/04 03:40:06;;;;;;;5.05;2.88;;;;;;;25.10;58.18;101027.84;5094538;28;20052;-56
2023/06/04 03:42:36;;;;;;;9.57;3.20;;;;;;;25.08;58.32;101024.44;5094259;28;20052;-56
2023/06/04 03:45:04;;;;;;;4.82;3.25;;;;;;;25.09;58.18;101032.41;5094140;28;20369;-56
2023/06/04 03:47:32;;;;;;;7.00;4.00;;;;;;;25.09;58.38;101035.13;5094003;28;20048;-56
2023/06/04 03:50:01;;;;;;;4.85;3.08;;;;;;;25.10;57.95;101033.25;5077814;28;20047;-56
2023/06/04 03:52:29;;;;;;;6.30;3.40;;;;;;;25.10;58.03;101033.25;5094321;28;20059;-58
2023/06/04 03:54:59;;;;;;;4.82;2.88;;;;;;;25.09;57.93;101040.53;5077118;28;20115;-58
2023/06/04 03:57:28;;;;;;;4.93;2.97;;;;;;;25.10;57.98;101041.38;5094210;28;20400;-58
2023/06/04 03:59:55;;;;;;;3.65;2.88;;;;;;;25.09;57.98;101039.69;5093971;28;20051;-58
2023/06/04 04:02:23;;;;;;;4.50;3.72;;;;;;;25.09;58.03;101031.56;5094019;28;20050;-55
2023/06/04 04:04:53;;;;;;;6.65;3.60;;;;;;;25.09;57.93;101042.41;5093889;28;20475;-55
2023/06/04 04:07:23;;;;;;;4.60;3.23;;;;;;;25.09;58.00;101040.53;5093514;28;20412;-56
2023/06/04 04:09:53;;;;;;;4.45;3.08;;;;;;;25.08;57.78;101038.81;5093182;28;20668;-55
2023/06/04 04:12:21;;;;;;;5.63;3.17;;;;;;;25.09;57.76;101042.41;5093449;28;20059;-58
2023/06/04 04:14:50;;;;;;;4.40;3.20;;;;;;;25.09;57.69;101039.69;5093399;28;20569;-58
2023/06/04 04:17:17;;;;;;;4.25;3.42;;;;;;;25.10;57.52;101041.38;5076944;28;20435;-58
2023/06/04 04:19:45;;;;;;;5.47;3.58;;;;;;;25.09;57.59;101039.69;5093407;28;20052;-58
2023/06/04 04:22:17;;;;;;;5.15;3.00;;;;;;;25.09;57.68;101039.69;5093955;28;20507;-55
2023/06/04 04:24:44;;;;;;;4.95;3.08;;;;;;;25.09;57.48;101039.69;5093016;28;20052;-55
2023/06/04 04:27:12;;;;;;;5.68;3.50;;;;;;;25.09;57.38;101045.13;5094476;28;20400;-55
2023/06/04 04:29:42;;;;;;;5.75;3.65;;;;;;;25.09;57.55;101050.53;5093527;28;20062;-55
2023/06/04 04:32:10;;;;;;;5.97;3.67;;;;;;;25.09;57.68;101047.81;5093160;28;20055;-58
2023/06/04 04:34:54;;;;;;;;;;;;;;;25.07;57.58;101052.50;5093391;28;20506;-58
2023/06/04 04:37:31;;;;;;;4.03;3.17;;;;;;;25.08;57.41;101060.50;5092321;28;19927;-58
2023/06/04 04:39:59;;;;;;;6.80;4.28;;;;;;;25.08;57.48;101054.22;5093032;28;20052;-58
2023/06/04 04:42:31;;;;;;;6.78;3.85;;;;;;;25.08;57.50;101055.06;5092915;28;20059;-58
2023/06/04 04:45:00;;;;;;;4.30;3.42;;;;;;;25.08;57.44;101054.22;5092865;28;20052;-59
2023/06/04 04:47:29;;;;;;;5.97;3.70;;;;;;;25.08;57.54;101052.38;5093020;28;20051;-59
2023/06/04 04:49:56;;;;;;;8.73;4.60;;;;;;;25.08;57.39;101059.66;5093772;28;20048;-58
2023/06/04 04:52:24;;;;;;;4.95;3.30;;;;;;;25.07;57.49;101053.34;5092483;28;20066;-56
2023/06/04 04:54:55;;;;;;;4.80;4.00;;;;;;;25.08;57.29;101056.94;5092194;28;20048;-56
2023/06/04 04:57:24;;;;;;;5.13;3.40;;;;;;;25.08;57.51;101059.66;5092760;28;20048;-56
2023/06/04 04:59:53;;;;;;;5.63;3.08;;;;;;;25.08;57.22;101074.03;5092734;28;20044;-56
2023/06/04 05:02:21;;;;;;;4.80;3.40;;;;;;;25.08;57.09;101071.31;5092524;28;20059;-56
2023/06/04 05:04:51;;;;;;;4.97;3.65;;;;;;;25.08;57.19;101071.31;5092542;28;20048;-56
2023/06/04 05:07:19;;;;;;;4.55;3.47;;;;;;;25.08;57.23;101079.47;5092110;28;20051;-56
2023/06/04 05:09:47;;;;;;;5.88;3.60;;;;;;;25.08;57.13;101075.91;5092647;28;20060;-56
2023/06/04 05:12:14;;;;;;;4.35;3.50;;;;;;;25.08;57.32;101071.31;5092978;28;20070;-58
2023/06/04 05:14:42;;;;;;;4.53;3.45;;;;;;;25.08;57.02;101076.75;5093078;28;20056;-58
2023/06/04 05:17:12;;;;;;;4.82;3.10;;;;;;;25.09;56.99;101075.75;5092378;28;20044;-58
2023/06/04 05:19:42;;;;;;;5.88;3.60;;;;;;;25.08;56.95;101079.47;5092747;28;20056;-58
2023/06/04 05:22:10;;;;;;;6.07;3.42;;;;;;;25.09;57.00;101075.75;5092632;28;20059;-56
2023/06/04 05:24:37;;;;;;;6.85;3.85;;;;;;;25.09;57.20;101077.63;5092677;28;20063;-56
2023/06/04 05:27:09;;;;;;;4.75;3.25;;;;;;;25.08;57.14;101074.03;5092639;28;20503;-56
2023/06/04 05:29:37;;;;;;;5.03;3.72;;;;;;;25.09;57.09;101074.91;5092306;28;20048;-56
2023/06/04 05:32:04;;;;;;;4.93;3.25;;;;;;;25.09;57.11;101083.03;5093544;28;20055;-58
2023/06/04 05:34:32;;;;;;;4.70;2.78;;;;;;;25.09;56.96;101081.19;5093844;28;20044;-58
2023/06/04 05:37:00;;;;;;;5.32;3.85;;;;;;;25.10;57.08;101082.88;5092024;28;20052;-59
2023/06/04 05:39:27;;;;;;;5.35;3.90;;;;;;;25.09;57.03;101081.19;5092238;28;20060;-58
2023/06/04 05:42:01;;;;;;;5.47;3.75;;;;;;;25.09;57.11;101078.47;5092390;28;20055;-58
2023/06/04 05:44:29;;;;;;;4.35;3.28;;;;;;;25.10;57.20;101082.03;5092091;28;20044;-58
2023/06/04 05:46:56;;;;;;;4.75;3.60;;;;;;;25.09;57.15;101081.19;5092355;28;20051;-58
2023/06/04 05:49:24;;;;;;;5.30;3.70;;;;;;;25.10;57.06;101090.16;5092950;28;20063;-58
2023/06/04 05:51:54;;;;;;;5.45;3.30;;;;;;;25.10;57.28;101084.72;5097451;28;20048;-58
2023/06/04 05:54:21;;;;;;;5.78;3.97;;;;;;;25.10;57.15;101079.31;5096206;28;20052;-58
2023/06/04 05:56:50;;;;;;;5.40;4.10;;;;;;;25.10;57.09;101084.72;5096277;28;20051;-58
2023/06/04 05:59:17;;;;;;;6.22;4.00;;;;;;;25.10;57.18;101080.16;5097385;28;20083;-59
2023/06/04 06:01:45;;;;;;;7.45;3.95;;;;;;;25.11;57.20;101083.72;5097101;28;20047;-58
2023/06/04 06:04:13;;;;;;;5.55;4.78;;;;;;;25.10;57.26;101090.16;5096201;28;20056;-58
2023/06/04 06:06:48;;;;;;;7.38;4.35;;;;;;;25.11;57.32;101100.81;5096093;28;20048;-58
2023/06/04 06:09:16;;;;;;;4.97;4.13;;;;;;;25.12;57.49;101098.97;5097180;28;20503;-59
2023/06/04 06:11:43;;;;;;;5.90;4.55;;;;;;;25.11;57.37;101095.38;5097066;28;20055;-58
2023/06/04 06:14:11;;;;;;;5.72;4.78;;;;;;;25.12;57.22;101099.81;5096450;28;20122;-58
2023/06/04 06:16:40;;;;;;;7.07;4.80;;;;;;;25.13;57.38;101097.97;5095762;28;20048;-58
2023/06/04 06:19:07;;;;;;;6.88;5.30;;;;;;;25.13;57.32;101106.09;5095873;28;20539;-58
2023/06/04 06:21:36;;;;;;;6.03;4.63;;;;;;;25.13;57.48;101106.09;5096865;28;20044;-58
2023/06/04 06:24:03;;;;;;;7.05;4.97;;;;;;;25.13;57.55;101106.94;5095960;28;20063;-58
2023/06/04 06:26:32;;;;;;;7.25;5.03;;;;;;;25.13;57.72;101101.50;5095441;28;20044;-58
2023/06/04 06:29:01;;;;;;;5.63;4.47;;;;;;;25.14;57.53;101108.63;5095853;28;20052;-58
2023/06/04 06:31:30;;;;;;;6.78;5.30;;;;;;;25.14;57.58;101113.19;5095908;28;20381;-58
2023/06/04 06:33:57;;;;;;;6.85;4.60;;;;;;;25.14;57.64;101122.16;5096695;28;20066;-58
2023/06/04 06:36:26;;;;;;;7.63;5.38;;;;;;;25.15;57.55;101123.00;5096187;28;20056;-59
2023/06/04 06:38:53;;;;;;;6.90;5.03;;;;;;;25.15;57.70;101114.88;5095208;28;20048;-58
2023/06/04 06:41:21;;;;;;;6.63;4.80;;;;;;;25.14;57.64;101118.59;5096803;28;20047;-55
2023/06/04 06:43:48;;;;;;;7.13;4.97;;;;;;;25.14;57.92;101119.47;5096461;28;20055;-55
2023/06/04 06:46:15;;;;;;;6.97;5.53;;;;;;;25.15;57.82;101121.16;5096394;28;20388;-55
2023/06/04 06:48:45;;;;;;;7.13;5.63;;;;;;;25.15;57.70;101123.84;5094971;28;20047;-55
2023/06/04 06:51:12;;;;;;;6.57;5.10;;;;;;;25.16;57.89;101116.59;5095913;28;20047;-58
2023/06/04 06:53:40;;;;;;;6.25;5.07;;;;;;;25.15;57.71;101126.56;5095887;28;20052;-58
2023/06/04 06:56:07;;;;;;;6.75;5.60;;;;;;;25.14;57.64;101122.16;5096155;28;20578;-58
2023/06/04 06:58:35;;;;;;;6.93;4.55;;;;;;;25.15;57.91;101126.56;5096156;28;20384;-58
2023/06/04 07:01:02;;;;;;;6.88;5.55;;;;;;;25.15;57.81;101126.56;5095646;28;20431;-58
2023/06/04 07:03:31;;;;;;;6.85;5.03;;;;;;;25.16;57.78;101132.84;5096073;28;20487;-58
2023/06/04 07:05:58;;;;;;;7.43;5.72;;;;;;;25.17;57.89;101144.53;5095938;28;20051;-58
2023/06/04 07:08:26;;;;;;;7.03;5.13;;;;;;;25.16;57.58;101154.53;5095955;28;20051;-58
2023/06/04 07:10:53;;;;;;;8.50;5.20;;;;;;;25.17;57.68;101156.22;5095874;28;20051;-56
2023/06/04 07:13:21;;;;;;;7.90;5.63;;;;;;;25.17;57.87;101147.25;5095695;28;20040;-56
2023/06/04 07:15:48;;;;;;;6.20;5.55;;;;;;;25.17;57.66;101144.53;5094106;28;20059;-56
2023/06/04 07:18:15;;;;;;;6.68;5.38;;;;;;;25.18;57.87;101148.94;5095516;28;20384;-56
2023/06/04 07:20:43;;;;;;;7.43;5.15;;;;;;;25.17;57.85;101145.38;5095509;28;20051;-56
2023/06/04 07:23:10;;;;;;;6.35;5.03;;;;;;;25.18;57.86;101148.94;5095450;28;20043;-56
2023/06/04 07:25:38;;;;;;;6.95;5.32;;;;;;;25.19;57.87;101142.50;5094982;28;20044;-56
2023/06/04 07:28:05;;;;;;;7.28;6.22;;;;;;;25.17;58.08;101141.84;5095359;28;20036;-56
2023/06/04 07:30:33;;;;;;;7.60;6.13;;;;;;;25.18;57.68;101151.66;5095577;28;20047;-56
2023/06/04 07:33:00;;;;;;;8.05;5.32;;;;;;;25.18;57.74;101149.78;5094959;28;20428;-56
2023/06/04 07:35:27;;;;;;;7.82;5.57;;;;;;;25.19;57.90;101150.63;5095343;28;20059;-56
2023/06/04 07:37:55;;;;;;;8.50;6.38;;;;;;;25.18;57.78;101154.34;5095220;28;20082;-56
2023/06/04 07:40:22;;;;;;;8.30;6.35;;;;;;;25.19;58.10;101156.03;5095414;28;20055;-58
2023/06/04 07:42:50;;;;;;;8.20;5.82;;;;;;;25.19;57.89;101150.63;5095361;28;20040;-58
2023/06/04 07:45:17;;;;;;;7.22;5.50;;;;;;;25.19;57.90;101153.34;5095576;28;20040;-58
2023/06/04 07:47:45;;;;;;;7.22;6.40;;;;;;;25.18;57.96;101151.66;5095109;28;20511;-59
2023/06/04 07:50:12;;;;;;;8.30;6.57;;;;;;;25.19;58.03;101154.19;5095144;28;20044;-57
2023/06/04 07:52:39;;;;;;;7.68;6.53;;;;;;;25.20;57.78;101155.91;5095016;28;20114;-56
2023/06/04 07:55:08;;;;;;;8.70;6.25;;;;;;;25.19;57.90;101153.34;5095066;28;20047;-56
2023/06/04 07:57:36;;;;;;;9.60;6.20;;;;;;;25.21;57.75;101159.47;5094767;28;20044;-56
2023/06/04 08:00:04;;;;;;;9.88;6.93;;;;;;;25.20;57.93;101155.03;5094029;28;20055;-56
2023/06/04 08:02:37;;;;;;;9.70;6.55;;;;;;;25.22;57.73;101164.72;5101466;28;20048;-56
2023/06/04 08:05:05;;;;;;;9.07;6.15;;;;;;;25.23;57.67;101154.72;5093697;28;20044;-56
2023/06/04 08:07:33;;;;;;;8.88;6.90;;;;;;;25.24;57.91;101151.84;5095046;28;20044;-56
2023/06/04 08:10:00;;;;;;;9.75;6.50;;;;;;;25.26;57.53;101157.09;5094704;28;20059;-56
2023/06/04 08:12:28;;;;;;;9.77;6.85;;;;;;;25.26;57.81;101146.25;5093986;28;20059;-56
2023/06/04 08:14:57;;;;;;;7.72;6.30;;;;;;;25.27;57.57;101146.09;5094700;28;20048;-57
2023/06/04 08:17:24;;;;;;;9.68;6.70;;;;;;;25.28;57.64;101153.22;5094516;28;20408;-57
2023/06/04 08:19:52;;;;;;;13.88;9.52;;;;;;;25.23;57.67;101152.00;5094232;28;20048;-58
2023/06/04 08:22:19;;;;;;;10.80;9.15;;;;;;;25.14;57.50;101138.41;5094205;28;20048;-58
2023/06/04 08:24:46;;;;;;;12.73;9.90;;;;;;;25.12;57.03;101140.47;5094443;28;20044;-59
2023/06/04 08:27:14;;;;;;;11.15;9.50;;;;;;;25.11;57.28;101146.88;5094535;28;20063;-59
2023/06/04 08:29:41;;;;;;;11.77;9.85;;;;;;;25.06;57.43;101143.78;5094618;28;20044;-60
2023/06/04 08:32:08;;;;;;;12.68;10.57;;;;;;;24.96;57.11;101142.22;5094240;28;20142;-61
2023/06/04 08:34:36;;;;;;;12.85;10.95;;;;;;;24.90;57.38;101138.28;5094348;28;20388;-61
2023/06/04 08:37:04;;;;;;;12.75;10.18;;;;;;;24.85;57.09;101146.03;5094043;28;20484;-61
2023/06/04 08:39:33;;;;;;;12.73;9.73;;;;;;;24.85;56.86;101141.47;5094209;28;20480;-59
2023/06/04 08:42:03;;;;;;;12.07;10.52;;;;;;;24.86;57.41;101143.16;5090436;28;20048;-56
2023/06/04 08:44:31;;;;;;;12.10;9.80;;;;;;;24.82;57.76;101138.22;5093549;28;20044;-58
2023/06/04 08:47:09;;;;;;;11.60;9.38;;;;;;;24.78;57.44;101145.81;5093471;28;20040;-58
2023/06/04 08:49:40;;;;;;;11.95;9.77;;;;;;;24.78;57.39;101147.69;5081627;28;20052;-58
2023/06/04 08:52:08;;;;;;;10.30;9.10;;;;;;;24.78;56.90;101144.97;5092430;28;20055;-56
2023/06/04 08:54:36;;;;;;;10.68;8.73;;;;;;;24.78;56.67;101134.97;5085382;28;20067;-56
2023/06/04 08:57:04;;;;;;;9.75;8.52;;;;;;;24.78;56.80;101134.16;5093799;28;20040;-56
2023/06/04 08:59:32;;;;;;;12.57;9.02;;;;;;;24.78;56.97;101134.16;5085228;28;20059;-56
2023/06/04 09:02:00;;;;;;;9.75;8.75;;;;;;;24.78;56.74;101131.44;5073848;28;20068;-58
2023/06/04 09:04:28;;;;;;;9.70;8.48;;;;;;;24.87;54.59;101135.88;5073572;28;20487;-57
2023/06/04 09:07:02;;;;;;;8.15;6.60;;;;;;;24.88;53.80;101138.44;5073750;28;20048;-57
2023/06/04 09:09:31;;;;;;;8.25;6.32;;;;;;;24.89;54.35;101139.28;5073383;28;20051;-58
2023/06/04 09:12:03;;;;;;;8.30;6.50;;;;;;;24.88;54.96;101148.44;5073722;28;20044;-56
2023/06/04 09:14:30;;;;;;;9.15;7.90;;;;;;;24.85;54.99;101155.00;5073007;28;20388;-56
2023/06/04 09:16:58;;;;;;;7.93;6.80;;;;;;;24.87;55.29;101152.13;5073296;28;20492;-54
2023/06/04 09:19:26;;;;;;;9.85;6.40;;;;;;;24.91;55.81;101151.66;5075692;28;20400;-55
2023/06/04 09:21:59;;;;;;;7.85;6.70;;;;;;;24.93;55.83;101146.09;5090131;28;20043;-50
2023/06/04 09:24:47;;;;;;;8.85;8.00;;;;;;;24.97;55.69;101139.34;5081847;28;20040;-55
2023/06/04 09:27:22;;;;;;;8.70;7.72;;;;;;;25.01;55.45;101148.84;5090768;28;20051;-54
2023/06/04 09:29:56;;;;;;;7.75;6.95;;;;;;;24.97;55.33;101160.16;5076502;28;20045;-53
2023/06/04 09:32:30;;;;;;;8.32;7.53;;;;;;;24.94;55.88;101146.94;5071962;28;20480;-57
2023/06/04 09:35:13;;;;;;;7.80;7.00;;;;;;;24.95;56.18;101149.47;5073106;28;20049;-57
2023/06/04 09:37:42;;;;;;;10.32;8.30;;;;;;;24.91;56.02;101135.41;5073560;28;20036;-53
2023/06/04 09:40:10;;;;;;;9.80;8.23;;;;;;;24.89;56.11;101129.31;5055141;28;20063;-58
2023/06/04 09:42:55;;;;;;;7.90;7.10;;;;;;;24.92;56.02;101125.44;5072820;28;20495;-52
2023/06/04 09:45:31;;;;;;;8.13;7.15;;;;;;;24.97;56.25;101128.50;5072698;28;20053;-53
2023/06/04 09:47:59;;;;;;;8.23;6.75;;;;;;;25.01;55.92;101123.59;5072663;28;20045;-56
2023/06/04 09:50:30;;;;;;;7.32;6.53;;;;;;;25.03;55.75;101127.00;5075636;28;20063;-56
2023/06/04 09:52:57;;;;;;;7.43;6.57;;;;;;;25.05;55.68;101141.22;5092566;28;20047;-58
2023/06/04 09:55:25;;;;;;;6.78;6.07;;;;;;;25.04;55.71;101139.53;5092478;28;20048;-57
2023/06/04 09:57:53;;;;;;;7.57;6.82;;;;;;;25.04;55.96;101139.53;5092879;28;20040;-57
2023/06/04 10:00:22;;;;;;;8.27;7.00;;;;;;;25.01;56.11;101135.28;5092986;28;20045;-55
2023/06/04 10:02:56;;;;;;;8.98;7.07;;;;;;;24.99;55.64;101137.28;5093123;28;20059;-53
2023/06/04 10:05:24;;;;;;;6.68;5.97;;;;;;;25.00;55.84;101133.59;5093175;28;20411;-54
2023/06/04 10:07:52;;;;;;;9.43;7.95;;;;;;;25.03;56.20;101127.84;5092576;28;20380;-54
2023/06/04 10:10:22;;;;;;;8.43;7.60;;;;;;;25.05;55.85;101124.97;5092341;28;20067;-57
2023/06/04 10:13:01;;;;;;;8.80;8.00;;;;;;;25.05;55.65;101123.13;5092640;28;20044;-58
2023/06/04 10:15:32;;;;;;;8.25;7.45;;;;;;;25.08;55.83;101122.78;5078674;28;20385;-58
2023/06/04 10:17:59;;;;;;;10.20;8.38;;;;;;;25.12;55.81;101129.63;5072383;28;20107;-58
2023/06/04 10:20:27;;;;;;;12.68;8.80;;;;;;;25.15;55.44;101136.56;5072649;28;20055;-54
2023/06/04 10:22:55;;;;;;;11.27;8.63;;;;;;;25.15;55.53;101134.69;5072528;28;20481;-53
2023/06/04 10:25:22;;;;;;;11.85;8.85;;;;;;;25.12;55.22;101126.06;5071573;28;20102;-54
2023/06/04 10:27:51;;;;;;;8.75;7.85;;;;;;;25.08;55.34;101122.78;5071801;28;20465;-55
2023/06/04 10:30:18;;;;;;;9.00;7.80;;;;;;;25.06;55.19;101127.50;5072241;28;20405;-50
2023/06/04 10:32:46;;;;;;;9.00;8.10;;;;;;;25.04;55.11;101115.16;5070906;28;20493;-51
2023/06/04 10:35:15;;;;;;;8.35;7.45;;;;;;;25.05;55.23;101115.00;5074019;28;20044;-55
2023/06/04 10:37:43;;;;;;;8.68;7.78;;;;;;;25.10;55.53;101114.53;5088439;28;20048;-54
2023/06/04 10:40:10;;;;;;;10.02;8.85;;;;;;;25.19;55.55;101109.97;5096391;28;20044;-57
2023/06/04 10:42:41;;;;;;;10.85;8.38;;;;;;;25.27;55.13;101107.31;5091280;28;20048;-59
2023/06/04 10:45:12;;;;;;;10.07;9.07;;;;;;;25.32;54.89;101110.34;5076009;28;20049;-57
2023/06/04 10:47:40;;;;;;;8.50;7.68;;;;;;;25.29;55.23;101108.00;5082865;28;20048;-57
2023/06/04 10:50:13;;;;;;;9.48;8.52;;;;;;;25.25;55.34;101112.91;5094876;28;20052;-58
2023/06/04 10:52:55;;;;;;;9.37;8.37;;;;;;;25.26;55.56;101113.75;5094871;28;20052;-60
2023/06/04 10:55:24;;;;;;;12.27;10.23;;;;;;;25.29;54.97;101110.72;5095688;28;20047;-60
2023/06/04 10:57:59;;;;;;;10.13;9.13;;;;;;;25.28;54.89;101107.16;5096301;28;20055;-60
2023/06/04 11:00:41;;;;;;;9.68;8.63;;;;;;;25.26;55.14;101111.03;5093883;28;20055;-58
2023/06/04 11:03:12;;;;;;;8.30;7.50;;;;;;;25.26;55.45;101105.63;5091254;28;20044;-57
2023/06/04 11:05:42;;;;;;;10.27;8.02;;;;;;;25.26;55.93;101111.03;5087102;28;20044;-58
2023/06/04 11:08:11;;;;;;;9.48;8.48;;;;;;;25.23;56.08;101111.34;5082169;28;20040;-56
2023/06/04 11:10:41;;;;;;;8.98;8.07;;;;;;;25.21;56.48;101111.53;5094332;28;20391;-57
2023/06/04 11:13:08;;;;;;;9.38;8.38;;;;;;;25.18;56.46;101102.88;5095968;28;20048;-56
2023/06/04 11:15:44;;;;;;;8.77;7.97;;;;;;;25.16;56.29;101111.19;5095071;28;20049;-56
2023/06/04 11:18:16;;;;;;;9.65;8.68;;;;;;;25.13;56.50;101109.63;5095511;28;20047;-57
2023/06/04 11:20:48;;;;;;;9.02;8.07;;;;;;;25.14;56.48;101108.63;5095616;28;20047;-57
2023/06/04 11:23:16;;;;;;;9.65;8.23;;;;;;;25.14;56.55;101105.06;5095570;28;20048;-57
2023/06/04 11:25:45;;;;;;;10.43;8.63;;;;;;;25.15;56.62;101102.19;5095014;28;20047;-56
2023/06/04 11:28:19;;;;;;;8.20;7.10;;;;;;;25.18;56.80;101098.31;5095392;28;20040;-57
2023/06/04 11:31:02;;;;;;;11.20;7.63;;;;;;;25.19;57.10;101094.56;5095521;28;20503;-56
2023/06/04 11:33:30;;;;;;;14.18;10.90;;;;;;;25.30;57.25;101093.44;5073654;28;20048;-61